Time;durP1;ratioP1;P1;durP2;ratioP2;P2;SDS_P1;SDS_P2;PMS_P1;PMS_P2;Temp;Humidity;BMP_temperature;BMP_pressure;BME280_temperature;BME280_humidity;BME280_pressure;Samples;Min_cycle;Max_cycle;Signal;HPM_P1;HPM_P2
2023/08/19 04:01:54;;;;;;;8.90;8.03;;;19.80;99.90;;;;;;6127982;23;20457;-73
2023/08/19 04:04:22;;;;;;;10.23;9.23;;;19.70;99.90;;;;;;6152497;23;20435;-74
2023/08/19 04:06:49;;;;;;;10.53;7.87;;;19.70;99.90;;;;;;6152919;23;20429;-73
2023/08/19 04:09:16;;;;;;;8.67;7.77;;;19.70;99.90;;;;;;6153400;23;20415;-74
2023/08/19 04:11:42;;;;;;;9.40;8.40;;;19.70;99.90;;;;;;6154359;23;20434;-74
2023/08/19 04:14:09;;;;;;;14.33;9.07;;;19.70;99.90;;;;;;6153558;23;20473;-68
2023/08/19 04:16:38;;;;;;;8.40;7.60;;;19.70;99.90;;;;;;6152206;23;20410;-68
2023/08/19 04:19:06;;;;;;;9.63;8.40;;;19.70;99.90;;;;;;6153279;23;20425;-67
2023/08/19 04:21:33;;;;;;;11.20;8.00;;;19.60;99.90;;;;;;6154004;23;20422;-67
2023/08/19 04:24:00;;;;;;;9.87;8.83;;;19.60;99.90;;;;;;6154232;23;20417;-67
2023/08/19 04:26:27;;;;;;;7.87;7.17;;;19.60;99.90;;;;;;6153509;23;20741;-69
2023/08/19 04:28:54;;;;;;;12.57;9.30;;;19.60;99.90;;;;;;6153861;23;20708;-68
2023/08/19 04:31:21;;;;;;;9.70;7.40;;;19.70;99.90;;;;;;6153615;23;20417;-68
2023/08/19 04:33:47;;;;;;;11.43;10.20;;;19.60;99.90;;;;;;6154153;23;20450;-68
2023/08/19 04:36:15;;;;;;;9.60;8.80;;;19.70;99.90;;;;;;6154240;23;20450;-69
2023/08/19 04:38:42;;;;;;;8.10;7.30;;;19.60;99.90;;;;;;6154004;23;20422;-67
2023/08/19 04:41:08;;;;;;;10.83;7.20;;;19.60;99.90;;;;;;6153965;23;20428;-67
2023/08/19 04:43:35;;;;;;;13.50;9.30;;;19.60;99.90;;;;;;6154574;23;20421;-67
2023/08/19 04:46:03;;;;;;;8.10;7.30;;;19.60;99.90;;;;;;6153779;23;20453;-67
2023/08/19 04:48:29;;;;;;;12.50;9.23;;;19.70;99.90;;;;;;6152999;23;20472;-67
2023/08/19 04:50:56;;;;;;;10.20;9.30;;;19.90;99.90;;;;;;6153995;23;20426;-67
2023/08/19 04:53:24;;;;;;;10.80;7.80;;;20.10;99.90;;;;;;6153508;23;20446;-69
2023/08/19 04:55:58;;;;;;;9.20;8.40;;;20.10;99.90;;;;;;6153745;23;20771;-67
2023/08/19 04:58:25;;;;;;;10.87;9.67;;;20.10;99.90;;;;;;6153562;23;20918;-68
2023/08/19 05:00:51;;;;;;;10.73;8.33;;;20.10;99.90;;;;;;6153620;23;20422;-68
2023/08/19 05:03:18;;;;;;;15.00;9.10;;;20.10;99.90;;;;;;6153024;23;20422;-68
2023/08/19 05:05:45;;;;;;;11.10;8.40;;;20.10;99.90;;;;;;6153340;23;20943;-66
2023/08/19 05:08:12;;;;;;;10.03;7.10;;;20.10;99.90;;;;;;6152983;23;20422;-67
2023/08/19 05:10:40;;;;;;;9.63;8.73;;;20.20;99.90;;;;;;6153517;23;20423;-66
2023/08/19 05:13:07;;;;;;;10.77;8.47;;;20.20;99.90;;;;;;6154252;23;20449;-66
2023/08/19 05:15:35;;;;;;;10.33;8.83;;;20.20;99.90;;;;;;6153346;23;20454;-67
2023/08/19 05:18:02;;;;;;;6.93;6.33;;;20.30;99.90;;;;;;6152825;23;20444;-68
2023/08/19 05:20:28;;;;;;;9.00;8.23;;;20.30;99.90;;;;;;6153062;23;20425;-67
2023/08/19 05:22:55;;;;;;;9.37;8.50;;;20.30;99.90;;;;;;6153718;23;20925;-67
2023/08/19 05:25:22;;;;;;;19.53;9.50;;;20.40;99.90;;;;;;6154015;23;20439;-68
2023/08/19 05:27:50;;;;;;;8.00;7.03;;;20.40;99.90;;;;;;6153451;23;20419;-67
2023/08/19 05:30:17;;;;;;;9.50;8.57;;;20.40;99.90;;;;;;6153086;23;20531;-67
2023/08/19 05:32:43;;;;;;;12.77;7.90;;;20.50;99.90;;;;;;6153698;23;20458;-67
2023/08/19 05:35:10;;;;;;;9.63;8.70;;;20.50;99.90;;;;;;6153412;23;20442;-68
2023/08/19 05:37:37;;;;;;;15.50;8.57;;;20.60;99.90;;;;;;6153275;23;20750;-67
2023/08/19 05:40:04;;;;;;;13.50;8.33;;;20.60;99.90;;;;;;6153571;23;20427;-67
2023/08/19 05:42:31;;;;;;;8.50;7.30;;;20.70;99.90;;;;;;6153888;23;20414;-68
2023/08/19 05:44:59;;;;;;;9.00;8.10;;;20.70;99.90;;;;;;6151457;23;20446;-67
2023/08/19 05:47:25;;;;;;;7.40;6.77;;;20.80;99.90;;;;;;6151668;23;20443;-69
2023/08/19 05:49:52;;;;;;;10.13;8.20;;;20.80;99.90;;;;;;6152035;23;20429;-68
2023/08/19 05:52:19;;;;;;;13.80;8.57;;;20.80;99.90;;;;;;6152540;23;20427;-67
2023/08/19 05:54:46;;;;;;;9.43;8.47;;;20.90;99.90;;;;;;6153284;23;20438;-66
2023/08/19 05:57:12;;;;;;;7.20;6.50;;;20.90;99.90;;;;;;6153292;23;20447;-68
2023/08/19 05:59:39;;;;;;;7.00;6.30;;;21.00;99.90;;;;;;6152833;23;20419;-67
2023/08/19 06:02:07;;;;;;;11.93;7.53;;;21.00;99.90;;;;;;6152996;23;20419;-66
2023/08/19 06:04:34;;;;;;;8.50;6.73;;;21.10;99.90;;;;;;6153925;23;20459;-69
2023/08/19 06:07:00;;;;;;;7.97;7.37;;;21.10;99.90;;;;;;6153699;23;20483;-66
2023/08/19 06:09:27;;;;;;;8.53;7.57;;;21.20;99.90;;;;;;6152349;23;20428;-67
2023/08/19 06:11:54;;;;;;;9.17;8.30;;;21.30;99.90;;;;;;6154147;23;20430;-67
2023/08/19 06:14:21;;;;;;;8.03;7.27;;;21.30;99.90;;;;;;6150654;23;20463;-66
2023/08/19 06:16:48;;;;;;;10.03;8.97;;;21.50;99.90;;;;;;6153166;23;20406;-68
2023/08/19 06:19:16;;;;;;;8.57;7.90;;;21.90;99.90;;;;;;6153762;23;20447;-68
2023/08/19 06:21:43;;;;;;;7.40;6.80;;;22.40;99.90;;;;;;6155720;23;20422;-67
2023/08/19 06:24:09;;;;;;;7.17;6.63;;;23.00;99.90;;;;;;6155316;23;20902;-67
2023/08/19 06:26:36;;;;;;;8.33;6.07;;;23.50;99.90;;;;;;6154277;23;20758;-67
2023/08/19 06:29:03;;;;;;;5.97;5.57;;;24.00;99.90;;;;;;6155005;23;20419;-67
2023/08/19 06:31:30;;;;;;;5.60;5.37;;;24.40;99.90;;;;;;6155684;23;20419;-68
2023/08/19 06:33:57;;;;;;;6.50;6.10;;;25.00;99.90;;;;;;6155188;23;20446;-67
2023/08/19 06:36:29;;;;;;;6.23;5.90;;;25.30;99.90;;;;;;6154341;23;20419;-68
2023/08/19 06:39:04;;;;;;;5.80;5.43;;;25.50;99.90;;;;;;6153118;23;20440;-70
2023/08/19 06:41:34;;;;;;;6.23;5.93;;;25.80;99.90;;;;;;6155136;23;20402;-67
2023/08/19 06:44:03;;;;;;;6.17;5.67;;;26.00;99.90;;;;;;6155428;23;20418;-67
2023/08/19 06:46:31;;;;;;;5.23;4.93;;;26.40;99.90;;;;;;6153884;23;20510;-68
2023/08/19 06:48:59;;;;;;;6.30;5.80;;;26.80;99.90;;;;;;6154216;23;20703;-69
2023/08/19 06:51:28;;;;;;;4.57;4.37;;;27.30;99.90;;;;;;6155250;23;20419;-67
2023/08/19 06:53:55;;;;;;;5.30;5.00;;;27.40;99.90;;;;;;6154942;23;21098;-66
2023/08/19 06:56:28;;;;;;;4.90;4.60;;;27.90;99.90;;;;;;6155231;23;20419;-68
2023/08/19 06:59:05;;;;;;;5.23;5.00;;;28.10;99.90;;;;;;6154222;23;20407;-68
2023/08/19 07:01:34;;;;;;;5.63;5.40;;;28.00;99.90;;;;;;6154826;23;20981;-68
2023/08/19 07:04:02;;;;;;;5.83;5.47;;;28.10;99.90;;;;;;6153246;23;20722;-69
2023/08/19 07:06:32;;;;;;;5.83;5.53;;;28.40;99.90;;;;;;6153702;23;20426;-67
2023/08/19 07:09:01;;;;;;;5.80;5.30;;;28.70;99.90;;;;;;6154464;23;20429;-67
2023/08/19 07:11:28;;;;;;;5.10;4.90;;;28.90;99.90;;;;;;6155006;23;20426;-67
2023/08/19 07:13:56;;;;;;;4.97;4.77;;;28.60;99.90;;;;;;6153387;23;20450;-66
2023/08/19 07:16:23;;;;;;;5.40;4.90;;;28.40;99.90;;;;;;6153796;23;20454;-67
2023/08/19 07:18:52;;;;;;;5.70;5.20;;;27.80;99.90;;;;;;6154231;23;20470;-67
2023/08/19 07:21:21;;;;;;;5.80;5.40;;;27.10;99.90;;;;;;6154521;23;20422;-66
2023/08/19 07:23:49;;;;;;;6.97;6.27;;;26.70;99.90;;;;;;6152154;23;20438;-67
2023/08/19 07:26:18;;;;;;;5.40;5.00;;;26.90;99.90;;;;;;6153379;23;20461;-67
2023/08/19 07:28:45;;;;;;;4.73;4.53;;;27.40;99.90;;;;;;6153553;23;20581;-67
2023/08/19 07:31:12;;;;;;;5.90;5.50;;;27.90;99.90;;;;;;6154958;23;20797;-67
2023/08/19 07:33:39;;;;;;;5.10;4.90;;;28.30;99.90;;;;;;6154096;23;20447;-67
2023/08/19 07:36:06;;;;;;;5.37;5.13;;;28.30;99.90;;;;;;6154521;23;20438;-67
2023/08/19 07:38:32;;;;;;;6.40;6.00;;;28.70;99.90;;;;;;6153996;23;20444;-67
2023/08/19 07:41:01;;;;;;;6.00;5.53;;;28.90;99.90;;;;;;6152692;23;20426;-68
2023/08/19 07:43:27;;;;;;;5.90;5.40;;;29.10;99.90;;;;;;6154348;23;20415;-67
2023/08/19 07:45:54;;;;;;;5.50;5.20;;;29.20;99.90;;;;;;6154433;23;20438;-67
2023/08/19 07:48:21;;;;;;;5.20;4.90;;;28.60;99.90;;;;;;6154853;23;20425;-67
2023/08/19 07:50:47;;;;;;;5.17;4.97;;;27.90;99.90;;;;;;6152986;23;20430;-68
2023/08/19 07:53:14;;;;;;;5.10;4.90;;;27.50;99.90;;;;;;6154823;23;20443;-67
2023/08/19 07:55:41;;;;;;;5.17;4.80;;;27.10;99.90;;;;;;6154782;23;20439;-67
2023/08/19 07:58:09;;;;;;;4.93;4.63;;;26.80;99.90;;;;;;6154154;23;20419;-68
2023/08/19 08:00:36;;;;;;;5.83;5.53;;;26.50;99.90;;;;;;6153293;23;20425;-67
2023/08/19 08:03:04;;;;;;;5.93;5.40;;;26.30;99.90;;;;;;6153825;23;20910;-67
2023/08/19 08:05:31;;;;;;;6.43;6.03;;;26.20;99.90;;;;;;6154790;23;20449;-67
2023/08/19 08:07:57;;;;;;;5.43;5.03;;;26.10;99.90;;;;;;6153182;23;20433;-67
2023/08/19 08:10:24;;;;;;;6.20;5.77;;;26.00;99.90;;;;;;6153809;23;20431;-68
2023/08/19 08:12:51;;;;;;;7.33;6.10;;;25.90;99.90;;;;;;6152361;23;20755;-68
2023/08/19 08:15:19;;;;;;;7.33;5.53;;;26.00;99.90;;;;;;6150911;23;20453;-67
2023/08/19 08:17:46;;;;;;;5.87;5.37;;;26.00;99.90;;;;;;6150832;23;20475;-68
2023/08/19 08:20:13;;;;;;;17.10;6.23;;;26.10;99.90;;;;;;6153279;23;20428;-67
2023/08/19 08:22:40;;;;;;;6.10;5.33;;;26.20;99.90;;;;;;6154736;23;20474;-68
2023/08/19 08:25:09;;;;;;;5.40;4.97;;;26.30;99.90;;;;;;6153915;23;20440;-67
2023/08/19 08:27:36;;;;;;;5.80;5.40;;;26.30;99.90;;;;;;6153897;23;20420;-67
2023/08/19 08:30:03;;;;;;;6.00;5.60;;;26.40;99.90;;;;;;6153592;23;20424;-68
2023/08/19 08:32:31;;;;;;;6.87;6.27;;;26.60;99.90;;;;;;6154214;23;20909;-68
2023/08/19 08:34:58;;;;;;;4.90;4.70;;;26.60;99.90;;;;;;6153572;23;20456;-67
2023/08/19 08:37:25;;;;;;;6.70;6.20;;;26.60;99.90;;;;;;6153875;23;20429;-67
2023/08/19 08:39:52;;;;;;;7.80;6.00;;;26.70;99.90;;;;;;6153435;23;20427;-67
2023/08/19 08:42:19;;;;;;;5.50;4.97;;;26.70;99.90;;;;;;6152670;23;20422;-68
2023/08/19 08:44:47;;;;;;;10.67;6.07;;;26.70;99.90;;;;;;6153627;23;20444;-67
2023/08/19 08:47:15;;;;;;;6.73;6.13;;;26.80;99.90;;;;;;6153587;23;20424;-68
2023/08/19 08:49:45;;;;;;;7.47;6.20;;;26.70;99.90;;;;;;6153323;23;20425;-67
2023/08/19 08:52:11;;;;;;;6.10;5.73;;;26.80;99.90;;;;;;6153897;23;20422;-67
2023/08/19 08:54:40;;;;;;;5.73;5.23;;;26.90;99.90;;;;;;6152288;23;20462;-67
2023/08/19 08:57:06;;;;;;;7.00;6.40;;;26.90;99.90;;;;;;6151570;23;20426;-68
2023/08/19 08:59:33;;;;;;;5.60;5.20;;;27.00;99.90;;;;;;6151240;23;20429;-67
2023/08/19 09:02:00;;;;;;;6.37;5.97;;;27.00;99.90;;;;;;6153865;23;20427;-67
2023/08/19 09:04:29;;;;;;;5.93;5.60;;;27.10;99.90;;;;;;6154240;23;20440;-66
2023/08/19 09:07:10;;;;;;;5.77;5.40;;;27.20;99.90;;;;;;6152941;23;20421;-69
2023/08/19 09:09:39;;;;;;;7.03;6.33;;;27.30;99.90;;;;;;6150616;23;20433;-69
2023/08/19 09:12:11;;;;;;;6.43;6.03;;;27.40;99.90;;;;;;6152405;23;20419;-69
2023/08/19 09:14:41;;;;;;;6.63;5.93;;;27.50;99.90;;;;;;6152210;23;20794;-69
2023/08/19 09:17:08;;;;;;;8.20;7.67;;;27.60;99.90;;;;;;6153412;23;20413;-69
2023/08/19 09:19:35;;;;;;;6.20;5.60;;;27.60;99.90;;;;;;6152461;23;20422;-67
2023/08/19 09:22:11;;;;;;;6.23;5.73;;;27.70;99.90;;;;;;6154203;23;20442;-68
2023/08/19 09:24:38;;;;;;;6.03;5.63;;;27.80;99.90;;;;;;6153689;23;20445;-69
2023/08/19 09:27:06;;;;;;;6.67;6.17;;;28.00;99.90;;;;;;6152917;23;20918;-68
2023/08/19 09:29:33;;;;;;;7.70;7.03;;;28.10;99.90;;;;;;6148738;23;20825;-68
2023/08/19 09:31:59;;;;;;;5.40;5.00;;;28.30;99.90;;;;;;6151077;23;20464;-67
2023/08/19 09:34:26;;;;;;;5.83;5.43;;;28.50;99.90;;;;;;6152889;23;20455;-67
2023/08/19 09:36:54;;;;;;;7.20;6.60;;;28.60;99.90;;;;;;6153691;23;20422;-68
2023/08/19 09:39:25;;;;;;;6.40;5.93;;;28.50;99.90;;;;;;6153711;23;20419;-67
2023/08/19 09:41:58;;;;;;;6.50;6.00;;;28.60;99.90;;;;;;6153193;23;20454;-68
2023/08/19 09:44:28;;;;;;;6.27;5.87;;;28.60;99.90;;;;;;6152758;23;20789;-69
2023/08/19 09:46:56;;;;;;;6.40;5.90;;;28.70;99.90;;;;;;6151671;23;21085;-68
2023/08/19 09:49:23;;;;;;;5.77;5.30;;;28.70;99.90;;;;;;6153031;23;20986;-69
2023/08/19 09:51:54;;;;;;;5.87;5.47;;;28.70;99.90;;;;;;6152398;23;20419;-68
2023/08/19 09:54:23;;;;;;;6.03;5.63;;;28.70;99.90;;;;;;6154676;23;20483;-68
2023/08/19 09:56:54;;;;;;;6.27;5.77;;;28.80;99.90;;;;;;6155451;23;20419;-69
2023/08/19 09:59:20;;;;;;;6.70;6.30;;;28.80;99.90;;;;;;6155324;23;20772;-68
2023/08/19 10:01:48;;;;;;;5.57;5.20;;;28.80;99.90;;;;;;6155960;23;20425;-69
2023/08/19 10:04:15;;;;;;;6.50;6.00;;;28.90;99.90;;;;;;6153839;23;20505;-69
2023/08/19 10:06:46;;;;;;;5.30;5.00;;;28.90;99.90;;;;;;6154694;23;20419;-68
2023/08/19 10:09:16;;;;;;;6.57;6.00;;;29.00;99.90;;;;;;6155097;23;20414;-69
2023/08/19 10:11:46;;;;;;;6.40;5.90;;;29.10;99.90;;;;;;6156272;23;20426;-68
2023/08/19 10:14:13;;;;;;;6.50;6.00;;;29.20;99.90;;;;;;6155108;23;20443;-68
2023/08/19 10:16:44;;;;;;;5.00;4.70;;;29.20;99.90;;;;;;6153889;23;20403;-70
2023/08/19 10:19:17;;;;;;;5.93;5.53;;;29.20;99.90;;;;;;6154752;23;20403;-69
2023/08/19 10:21:45;;;;;;;6.17;5.77;;;29.40;99.90;;;;;;6155490;23;20458;-70
2023/08/19 10:24:12;;;;;;;6.33;5.83;;;29.50;99.90;;;;;;6153661;23;20926;-66
2023/08/19 10:26:39;;;;;;;5.33;5.13;;;29.70;99.90;;;;;;6154965;23;20907;-70
2023/08/19 10:29:08;;;;;;;6.40;6.00;;;30.00;99.90;;;;;;6154609;23;20425;-70
2023/08/19 10:31:36;;;;;;;5.10;4.80;;;30.20;99.90;;;;;;6154657;23;20438;-68
2023/08/19 10:34:11;;;;;;;6.13;5.40;;;30.20;99.90;;;;;;6154544;23;20446;-67
2023/08/19 10:36:39;;;;;;;6.93;6.33;;;30.20;99.90;;;;;;6155198;23;20406;-67
2023/08/19 10:39:15;;;;;;;6.23;5.80;;;30.20;99.90;;;;;;6155595;23;20434;-70
2023/08/19 10:41:42;;;;;;;5.73;5.23;;;30.20;99.90;;;;;;6153911;23;20406;-69
2023/08/19 10:44:12;;;;;;;6.20;5.60;;;30.20;99.90;;;;;;6152953;23;20888;-70
2023/08/19 10:46:40;;;;;;;5.77;5.37;;;30.20;99.90;;;;;;6154919;23;20407;-69
2023/08/19 10:49:08;;;;;;;5.90;5.60;;;30.00;99.90;;;;;;6152816;23;20419;-68
2023/08/19 10:51:53;;;;;;;5.00;4.70;;;30.00;99.90;;;;;;6155334;23;20418;-69
2023/08/19 10:54:31;;;;;;;5.70;5.30;;;30.10;99.90;;;;;;6153526;23;20444;-69
2023/08/19 10:57:09;;;;;;;5.60;5.30;;;30.20;99.90;;;;;;6154622;23;20175;-69
2023/08/19 10:59:38;;;;;;;5.60;5.17;;;30.20;99.90;;;;;;6153915;23;20933;-69
2023/08/19 11:02:06;;;;;;;6.40;6.00;;;30.10;99.90;;;;;;6154960;23;20426;-69
2023/08/19 11:04:33;;;;;;;5.60;5.20;;;30.10;99.90;;;;;;6154058;23;20435;-67
2023/08/19 11:06:59;;;;;;;6.43;5.63;;;30.00;99.90;;;;;;6154784;23;20419;-68
2023/08/19 11:09:28;;;;;;;6.17;5.70;;;30.00;99.90;;;;;;6154112;23;20425;-69
2023/08/19 11:11:56;;;;;;;5.73;5.40;;;29.90;99.90;;;;;;6154478;23;20419;-68
2023/08/19 11:14:24;;;;;;;5.60;5.20;;;29.90;99.90;;;;;;6155095;23;20466;-67
2023/08/19 11:16:53;;;;;;;5.50;5.10;;;29.90;99.90;;;;;;6154581;23;20403;-69
2023/08/19 11:19:20;;;;;;;5.30;5.10;;;29.90;99.90;;;;;;6152842;23;20423;-69
2023/08/19 11:21:48;;;;;;;5.87;5.47;;;29.90;99.90;;;;;;6154917;23;20422;-68
2023/08/19 11:24:15;;;;;;;5.43;5.03;;;29.90;99.90;;;;;;6154526;23;20418;-69
2023/08/19 11:26:42;;;;;;;5.20;4.80;;;29.90;99.90;;;;;;6154709;23;20924;-68
2023/08/19 11:29:09;;;;;;;6.03;5.63;;;29.90;99.90;;;;;;6154420;23;20950;-69
2023/08/19 11:31:37;;;;;;;5.13;4.83;;;29.90;99.90;;;;;;6154635;23;20759;-69
2023/08/19 11:34:08;;;;;;;5.87;5.47;;;29.90;99.90;;;;;;6155086;23;20419;-67
2023/08/19 11:36:35;;;;;;;5.40;5.00;;;30.00;99.90;;;;;;6153560;23;20422;-69
2023/08/19 11:39:02;;;;;;;5.80;5.40;;;30.10;99.90;;;;;;6154221;23;20423;-67
2023/08/19 11:41:29;;;;;;;5.50;5.10;;;30.20;99.90;;;;;;6153906;23;20794;-68
2023/08/19 11:43:57;;;;;;;6.03;5.53;;;30.20;99.90;;;;;;6154642;23;20422;-67
2023/08/19 11:46:27;;;;;;;5.23;4.93;;;30.30;99.90;;;;;;6154017;23;20935;-68
2023/08/19 11:48:54;;;;;;;5.00;4.80;;;30.40;99.90;;;;;;6154146;23;20442;-68
2023/08/19 11:51:22;;;;;;;4.97;4.73;;;30.30;99.90;;;;;;6154455;23;20422;-69
2023/08/19 11:53:50;;;;;;;5.07;4.87;;;30.40;99.90;;;;;;6154732;23;20747;-69
2023/08/19 11:56:16;;;;;;;5.33;5.03;;;30.40;99.90;;;;;;6153705;23;20509;-68
2023/08/19 11:58:48;;;;;;;5.87;5.57;;;30.40;99.90;;;;;;6153342;23;20426;-69
2023/08/19 12:01:15;;;;;;;5.03;4.77;;;30.30;99.90;;;;;;6153908;23;20403;-69
2023/08/19 12:03:43;;;;;;;6.00;5.60;;;30.10;99.90;;;;;;6154128;23;20418;-69
2023/08/19 12:06:10;;;;;;;5.70;5.30;;;30.20;99.90;;;;;;6152586;23;20442;-70
2023/08/19 12:08:40;;;;;;;5.30;4.90;;;30.20;99.90;;;;;;6153733;23;20446;-68
2023/08/19 12:11:07;;;;;;;4.77;4.40;;;30.30;99.90;;;;;;6153364;23;20407;-68
2023/08/19 12:13:34;;;;;;;5.40;5.00;;;30.30;99.90;;;;;;6153663;23;20434;-69
2023/08/19 12:16:00;;;;;;;7.03;6.43;;;30.30;99.90;;;;;;6152878;23;20458;-69
2023/08/19 12:18:32;;;;;;;4.57;4.30;;;30.40;99.90;;;;;;6152681;23;20698;-69
2023/08/19 12:20:59;;;;;;;5.27;4.90;;;30.50;99.90;;;;;;6153080;23;20435;-67
2023/08/19 12:23:26;;;;;;;5.63;5.23;;;30.60;99.90;;;;;;6153853;23;20422;-69
2023/08/19 12:25:56;;;;;;;4.80;4.50;;;30.50;99.90;;;;;;6152348;23;20978;-68
2023/08/19 12:28:23;;;;;;;5.00;4.70;;;30.50;99.90;;;;;;6153395;23;20437;-68
2023/08/19 12:30:51;;;;;;;4.63;4.43;;;30.60;99.90;;;;;;6151794;23;20422;-69
2023/08/19 12:33:19;;;;;;;5.37;5.17;;;30.50;99.90;;;;;;6151887;23;20419;-70
2023/08/19 12:35:47;;;;;;;4.40;4.20;;;30.60;99.90;;;;;;6151354;23;20454;-69
2023/08/19 12:38:15;;;;;;;5.70;5.30;;;30.70;99.90;;;;;;6152758;23;20674;-69
2023/08/19 12:40:41;;;;;;;5.13;4.83;;;30.60;99.90;;;;;;6152499;23;20418;-69
2023/08/19 12:43:10;;;;;;;5.00;4.70;;;30.70;99.90;;;;;;6152963;23;20422;-70
2023/08/19 12:45:37;;;;;;;4.07;3.90;;;30.70;99.90;;;;;;6153239;23;20440;-69
2023/08/19 12:48:05;;;;;;;5.83;5.43;;;30.60;99.90;;;;;;6153134;23;20426;-69
2023/08/19 12:50:32;;;;;;;5.00;4.70;;;30.50;99.90;;;;;;6153024;23;20419;-69
2023/08/19 12:52:59;;;;;;;4.70;4.50;;;30.50;99.90;;;;;;6153786;23;20441;-70
2023/08/19 12:55:27;;;;;;;5.80;5.30;;;30.40;99.90;;;;;;6151737;23;20454;-70
2023/08/19 12:57:55;;;;;;;6.20;5.70;;;30.30;99.90;;;;;;6153447;23;20474;-69
2023/08/19 13:00:24;;;;;;;5.80;5.30;;;30.20;99.90;;;;;;6152875;23;20418;-68
2023/08/19 13:02:52;;;;;;;5.70;5.40;;;30.20;99.90;;;;;;6153075;23;20740;-68
2023/08/19 13:05:19;;;;;;;5.27;4.90;;;30.00;99.90;;;;;;6152544;23;20442;-69
2023/08/19 13:07:46;;;;;;;5.57;5.17;;;30.00;99.90;;;;;;6152905;23;20425;-69
2023/08/19 13:10:13;;;;;;;5.70;5.30;;;30.00;99.90;;;;;;6152207;23;20908;-68
2023/08/19 13:12:41;;;;;;;5.53;5.00;;;30.00;99.90;;;;;;6152750;23;20872;-69
2023/08/19 13:15:08;;;;;;;6.20;5.80;;;29.90;99.90;;;;;;6153840;23;20459;-69
2023/08/19 13:17:36;;;;;;;5.77;5.37;;;29.90;99.90;;;;;;6153951;23;20426;-68
2023/08/19 13:20:06;;;;;;;5.77;5.47;;;29.90;99.90;;;;;;6151013;23;20426;-69
2023/08/19 13:22:32;;;;;;;6.17;5.77;;;29.90;99.90;;;;;;6153139;23;20492;-68
2023/08/19 13:24:59;;;;;;;5.70;5.30;;;29.90;99.90;;;;;;6153298;23;20488;-69
2023/08/19 13:27:26;;;;;;;4.37;4.10;;;29.80;99.90;;;;;;6152938;23;20419;-70
2023/08/19 13:29:53;;;;;;;5.47;5.17;;;29.80;99.90;;;;;;6149796;23;20430;-69
2023/08/19 13:32:19;;;;;;;6.30;5.83;;;29.80;99.90;;;;;;6152484;23;20425;-69
2023/08/19 13:34:47;;;;;;;5.90;5.50;;;29.80;99.90;;;;;;6152958;23;20446;-69
2023/08/19 13:37:14;;;;;;;6.50;6.10;;;29.80;99.90;;;;;;6153239;23;20418;-69
2023/08/19 13:39:41;;;;;;;5.57;5.17;;;29.70;99.90;;;;;;6153094;23;20419;-70
2023/08/19 13:42:07;;;;;;;5.90;5.60;;;29.70;99.90;;;;;;6153612;23;20419;-69
2023/08/19 13:44:34;;;;;;;6.67;6.17;;;29.70;99.90;;;;;;6151548;23;20969;-69
2023/08/19 13:47:01;;;;;;;5.30;4.97;;;29.80;99.90;;;;;;6153264;23;20555;-71
2023/08/19 13:49:27;;;;;;;6.07;5.67;;;29.80;99.90;;;;;;6151850;23;20419;-68
2023/08/19 13:51:55;;;;;;;5.70;5.40;;;29.80;99.90;;;;;;6152595;23;20419;-68
2023/08/19 13:54:22;;;;;;;5.90;5.50;;;29.80;99.90;;;;;;6150980;23;20449;-69
2023/08/19 13:56:51;;;;;;;5.90;4.73;;;29.80;99.90;;;;;;6152900;23;20446;-69
2023/08/19 13:59:18;;;;;;;6.27;5.87;;;29.80;99.90;;;;;;6152642;23;20422;-69
2023/08/19 14:01:45;;;;;;;5.03;4.63;;;29.70;99.90;;;;;;6152490;23;20419;-69
2023/08/19 14:04:12;;;;;;;5.43;5.03;;;29.70;99.90;;;;;;6150915;23;20726;-68
2023/08/19 14:06:38;;;;;;;5.97;5.67;;;29.60;99.90;;;;;;6152024;23;20419;-69
2023/08/19 14:09:06;;;;;;;4.97;4.77;;;29.60;99.90;;;;;;6149208;23;20426;-69
2023/08/19 14:11:33;;;;;;;5.23;5.03;;;29.60;99.90;;;;;;6151426;23;20522;-69
2023/08/19 14:14:00;;;;;;;9.13;5.20;;;29.60;99.90;;;;;;6149593;23;20483;-68
2023/08/19 14:16:28;;;;;;;5.50;5.00;;;29.50;99.90;;;;;;6149858;23;20454;-69
2023/08/19 14:18:56;;;;;;;5.33;4.93;;;29.50;99.90;;;;;;6152195;23;20758;-69
2023/08/19 14:21:23;;;;;;;5.57;5.17;;;29.40;99.90;;;;;;6152224;23;20473;-69
2023/08/19 14:23:50;;;;;;;5.40;5.20;;;29.40;99.90;;;;;;6150427;23;20423;-68
2023/08/19 14:26:18;;;;;;;7.10;4.90;;;29.40;99.90;;;;;;6151071;23;20434;-69
2023/08/19 14:28:45;;;;;;;5.00;4.70;;;29.40;99.90;;;;;;6151427;23;20419;-69
2023/08/19 14:31:11;;;;;;;5.07;4.57;;;29.30;99.90;;;;;;6152185;23;20461;-69
2023/08/19 14:33:42;;;;;;;5.90;5.60;;;29.40;99.90;;;;;;6148537;23;20422;-69
2023/08/19 14:36:09;;;;;;;5.33;4.90;;;29.30;99.90;;;;;;6150822;23;20450;-67
2023/08/19 14:38:35;;;;;;;4.83;4.63;;;29.20;99.90;;;;;;6151614;23;20418;-70
2023/08/19 14:41:02;;;;;;;4.97;4.77;;;29.20;99.90;;;;;;6152326;23;20425;-69
2023/08/19 14:43:30;;;;;;;5.93;5.63;;;29.30;99.90;;;;;;6153689;23;20800;-70
2023/08/19 14:45:57;;;;;;;4.27;4.07;;;29.20;99.90;;;;;;6154236;23;20435;-70
2023/08/19 14:48:24;;;;;;;4.70;4.40;;;29.20;99.90;;;;;;6154690;23;20441;-70
2023/08/19 14:50:50;;;;;;;4.70;4.50;;;29.20;99.90;;;;;;6152996;23;20488;-70
2023/08/19 14:53:17;;;;;;;5.20;4.80;;;29.20;99.90;;;;;;6154358;23;20433;-69
2023/08/19 14:55:44;;;;;;;5.63;5.30;;;29.20;99.90;;;;;;6154311;23;20454;-69
2023/08/19 14:58:11;;;;;;;5.07;4.77;;;29.20;99.90;;;;;;6154937;23;20419;-69
2023/08/19 15:00:39;;;;;;;5.37;4.97;;;29.20;99.90;;;;;;6154199;23;20433;-70
2023/08/19 15:03:06;;;;;;;4.50;4.30;;;29.20;99.90;;;;;;6153923;23;20426;-70
2023/08/19 15:05:33;;;;;;;5.13;4.83;;;29.10;99.90;;;;;;6154479;23;20760;-70
2023/08/19 15:07:59;;;;;;;6.60;6.00;;;29.00;99.90;;;;;;6153318;23;20418;-69
2023/08/19 15:10:27;;;;;;;5.17;4.87;;;29.00;99.90;;;;;;6152909;23;20419;-70
2023/08/19 15:12:54;;;;;;;5.30;4.90;;;28.90;99.90;;;;;;6154047;23;20423;-69
2023/08/19 15:15:21;;;;;;;5.23;5.03;;;28.80;99.90;;;;;;6153628;23;20450;-70
2023/08/19 15:17:50;;;;;;;5.40;5.10;;;28.80;99.90;;;;;;6153726;23;20418;-69
2023/08/19 15:20:17;;;;;;;4.77;4.37;;;28.70;99.90;;;;;;6153745;23;20732;-70
2023/08/19 15:22:45;;;;;;;5.00;4.67;;;28.70;99.90;;;;;;6152879;23;20419;-70
2023/08/19 15:25:11;;;;;;;5.70;4.70;;;28.60;99.90;;;;;;6153092;23;20947;-70
2023/08/19 15:27:42;;;;;;;5.90;5.40;;;28.60;99.90;;;;;;6153273;23;20423;-69
2023/08/19 15:30:10;;;;;;;5.43;4.93;;;28.60;99.90;;;;;;6153178;23;20434;-70
2023/08/19 15:32:37;;;;;;;6.87;6.27;;;28.50;99.90;;;;;;6153586;23;20419;-69
2023/08/19 15:35:07;;;;;;;5.90;5.40;;;28.50;99.90;;;;;;6153769;23;20753;-68
2023/08/19 15:37:35;;;;;;;5.20;4.90;;;28.50;99.90;;;;;;6152396;23;20525;-70
2023/08/19 15:40:03;;;;;;;5.93;5.53;;;28.50;99.90;;;;;;6152791;23;20429;-69
2023/08/19 15:42:30;;;;;;;6.87;6.30;;;28.50;99.90;;;;;;6153915;23;20473;-70
2023/08/19 15:44:56;;;;;;;5.10;4.73;;;28.40;99.90;;;;;;6153705;23;20439;-69
2023/08/19 15:47:23;;;;;;;5.60;5.30;;;28.40;99.90;;;;;;6153962;23;20478;-70
2023/08/19 15:49:50;;;;;;;5.97;5.37;;;28.40;99.90;;;;;;6151658;23;20770;-70
2023/08/19 15:52:18;;;;;;;5.50;5.00;;;28.40;99.90;;;;;;6154386;23;20454;-69
2023/08/19 15:54:45;;;;;;;5.67;5.37;;;28.30;99.90;;;;;;6154258;23;20457;-69
2023/08/19 15:57:12;;;;;;;6.30;5.70;;;28.30;99.90;;;;;;6153196;23;20458;-70
2023/08/19 15:59:38;;;;;;;5.70;5.20;;;28.20;99.90;;;;;;6153501;23;20418;-70
2023/08/19 16:02:05;;;;;;;5.87;5.30;;;28.10;99.90;;;;;;6153841;23;20434;-69
2023/08/19 16:04:32;;;;;;;5.37;5.07;;;28.10;99.90;;;;;;6154486;23;20760;-70
2023/08/19 16:07:01;;;;;;;4.93;4.60;;;28.10;99.90;;;;;;6153575;23;20557;-69
2023/08/19 16:09:29;;;;;;;5.53;5.10;;;28.00;99.90;;;;;;6153284;23;20434;-70
2023/08/19 16:11:56;;;;;;;5.80;5.50;;;28.00;99.90;;;;;;6152753;23;20419;-70
2023/08/19 16:14:23;;;;;;;7.33;6.77;;;28.00;99.90;;;;;;6151355;23;20450;-69
2023/08/19 16:16:49;;;;;;;6.40;6.00;;;27.90;99.90;;;;;;6153045;23;20430;-69
2023/08/19 16:19:16;;;;;;;6.80;6.10;;;27.90;99.90;;;;;;6153332;23;20419;-68
2023/08/19 16:21:43;;;;;;;6.03;5.60;;;27.90;99.90;;;;;;6153596;23;20423;-70
2023/08/19 16:24:10;;;;;;;6.33;5.73;;;27.90;99.90;;;;;;6153819;23;20426;-70
2023/08/19 16:26:38;;;;;;;7.30;6.73;;;27.90;99.90;;;;;;6153743;23;20922;-70
2023/08/19 16:29:05;;;;;;;6.83;6.40;;;27.80;99.90;;;;;;6153142;23;20937;-70
2023/08/19 16:31:31;;;;;;;5.90;5.47;;;27.70;99.90;;;;;;6154576;23;20757;-70
2023/08/19 16:33:58;;;;;;;6.30;5.80;;;27.70;99.90;;;;;;6153720;23;20422;-70
2023/08/19 16:36:25;;;;;;;6.30;5.80;;;27.70;99.90;;;;;;6153445;23;20447;-71
2023/08/19 16:38:51;;;;;;;6.27;5.77;;;27.60;99.90;;;;;;6153328;23;20428;-71
2023/08/19 16:41:18;;;;;;;7.50;6.90;;;27.50;99.90;;;;;;6152702;23;20434;-70
2023/08/19 16:43:46;;;;;;;5.83;5.40;;;27.50;99.90;;;;;;6153286;23;20429;-70
2023/08/19 16:46:13;;;;;;;6.63;6.13;;;27.50;99.90;;;;;;6153778;23;20442;-70
2023/08/19 16:48:39;;;;;;;7.23;6.63;;;27.40;99.90;;;;;;6154157;23;20625;-70